Shenandoah, IA (51601)

4:46 PM CDT on July 24, 2014 (GMT -0500)
Cottage and Maple (KIASHENA1) Elev 1016 ft | 40.76 °N, 95.37 °W | Change Station
Active Advisory: Heat Advisory

Current weather conditions updated 6 seconds ago

Clear
Clear
79.9 °F
Feels Like 81 °F
N
1.0
Wind Variable Wind from SSE
Gusts 9.0 mph

Tomorrow is forecast to be Much Warmer than today.

Today
High -- | Low -- °F
--% Chance of Precip.
Yesterday
High -- | Low -- °F
Precip. -- in
6:10 AM 8:44 PM
Waning Crescent, 4% visible
Pressure 30.03 in
Visibility 10.0 miles
Clouds Clear
Heat Index 81 °F
Dew Point 64 °F
Humidity 58%
Rainfall 0.00 in
Snow Depth Not available.
UV 6 out of 12
Pollen 6.20 out of 12
Air Quality Not available.
Flu Activity Not available.
METAR KSDA 242135Z AUTO 13012KT 10SM CLR 27/17 A3003 RMK AO2

More Conditions Fewer Conditions

Pressure 30.03 in
Visibility 10.0 miles
Clouds Clear
Heat Index 81 °F
Dew Point 64 °F
Humidity 58%
Rainfall 0.00 in
Snow Depth Not available.
UV 6 out of 12
Pollen 6.20 out of 12
Air Quality Not available.
Flu Activity Not available.
METAR KSDA 242135Z AUTO 13012KT 10SM CLR 27/17 A3003 RMK AO2

More Conditions Fewer Conditions

10-Day Weather Forecast

Almanac

Astronomy

Jul. 24, 2014 Rise Set
Actual Time 6:10 AM CDT 8:44 PM CDT
Civil Twilight 5:39 AM CDT 9:16 PM CDT
Nautical Twilight 4:59 AM CDT 9:55 PM CDT
Astronomical Twilight 4:15 AM CDT 10:39 PM CDT
Moon 4:19 AM CDT 7:00 PM CDT
Length of Visible Light 15h 37m
Length of Day
14h 34m
Tomorrow will be 1m 48s shorter.
Waning Crescent, 4% of the Moon is Illuminated
Today
Waning Crescent
Jul 26
New
Aug 3
First Quarter
Aug 10
Full
Aug 17
Last Quarter

Today's Extremes

State Highs State Lows

Community

WunderPhotos

Upload Photos

1,737,139 photos uploaded!

Nearby

Snow Depth

Station Depth Elevation
No new snow has been reported.

Earthquake Activity

City Distance Mag. Time & Date
No recent earthquake activity has been reported nearby.
Minimum magnitude displayed is 2.5.

Coastal Water Temperatures

Place Temperature
No Stations Reporting

Nearby Weather Stations

Station Location Temp. Heat Index Dew Point Humidity Wind Precip. Elev Updated Type
Cottage and Maple, Shenandoah, IA 79.9 °F 81 °F 64 °F 58% SSE  at  1.0 mph 0.00 in / hr 1016 ft 4:46 PM CDT Rapid Fire
NFS-2311 Maple Ave, Clarinda, IA 79.7 °F 81 °F 62 °F 55% NNE  at  5.0 mph 0.00 in / hr 1181 ft 4:37 PM CDT Normal
HADS WEST NISHNABOTNA RIVER NEAR RAND IA, Randolph, IA 81 °F 79 °F - - North  at  - 0.00 in / hr 933 ft 4:00 PM CDT MADIS
East of Clarinda 1 mile, Clarinda, IA 77.9 °F 80 °F 64 °F 63% SW  at  8.0 mph 0.00 in / hr 1102 ft 4:39 PM CDT Normal
North Side of Town, Thurman, IA 82.7 °F 84 °F 65 °F 55% SW  at  4.0 mph 0.00 in / hr 1007 ft 4:46 PM CDT Normal
Whitetail Valley near Viking Lake, Stanton, IA 79.2 °F 81 °F 64 °F 59% SSE  at  10.9 mph - / hr 1220 ft 4:41 PM CDT Normal
Villisca, IA 79.2 °F 81 °F 63 °F 58% South  at  9.8 mph 0.00 in / hr 1076 ft 4:46 PM CDT Rapid Fire

Show More Stations Show Fewer Stations